Time;durP1;ratioP1;P1;durP2;ratioP2;P2;SDS_P1;SDS_P2;PMS_P1;PMS_P2;Temp;Humidity;BMP_temperature;BMP_pressure;BME280_temperature;BME280_humidity;BME280_pressure;Samples;Min_cycle;Max_cycle;Signal;HPM_P1;HPM_P2
2022/03/26 00:03:05;;;;;;;74.97;41.17;;;;;;;3.69;53.84;98662.13;10333377;28;20494;-61
2022/03/26 00:08:04;;;;;;;81.95;42.10;;;;;;;3.61;53.96;98663.47;10332110;28;20072;-61
2022/03/26 00:13:03;;;;;;;68.32;38.53;;;;;;;3.56;54.28;98662.41;10331974;28;20065;-61
2022/03/26 00:18:02;;;;;;;55.50;30.15;;;;;;;3.46;55.18;98655.16;10331695;28;20060;-61
2022/03/26 00:23:02;;;;;;;49.85;29.65;;;;;;;3.39;54.98;98654.91;10331813;28;20076;-61
2022/03/26 00:28:01;;;;;;;51.15;29.90;;;;;;;3.20;56.26;98671.19;10331634;28;20550;-61
2022/03/26 00:33:00;;;;;;;43.25;23.63;;;;;;;3.05;56.53;98664.53;10331130;28;20033;-61
2022/03/26 00:38:00;;;;;;;39.60;22.98;;;;;;;2.98;56.62;98674.53;10331515;28;20053;-61
2022/03/26 00:42:59;;;;;;;39.60;22.98;;;;;;;2.86;56.86;98673.97;10331085;28;20060;-61
2022/03/26 00:48:01;;;;;;;43.60;25.17;;;;;;;2.80;56.92;98671.16;10331048;28;20582;-61
2022/03/26 00:53:01;;;;;;;55.78;25.75;;;;;;;2.35;57.02;98611.94;10331703;28;20089;-61
2022/03/26 00:58:00;;;;;;;42.58;25.00;;;;;;;2.64;56.88;98676.41;10330964;28;20065;-61
2022/03/26 01:03:02;;;;;;;48.80;25.83;;;;;;;2.54;57.40;98678.56;10337780;28;20088;-61
2022/03/26 01:08:01;;;;;;;43.60;24.63;;;;;;;2.50;57.60;98686.91;10338976;28;20462;-61
2022/03/26 01:13:00;;;;;;;49.65;25.17;;;;;;;2.42;57.94;98701.06;10338780;28;20061;-61
2022/03/26 01:17:59;;;;;;;46.63;23.42;;;;;;;2.16;58.63;98679.34;10338287;28;20079;-61
2022/03/26 01:22:59;;;;;;;37.78;21.85;;;;;;;2.14;59.42;98692.09;10338546;28;20489;-61
2022/03/26 01:27:58;;;;;;;37.80;20.80;;;;;;;2.08;59.56;98706.28;10338736;28;20065;-61
2022/03/26 01:32:57;;;;;;;42.38;23.85;;;;;;;1.92;59.83;98720.00;10338193;28;20467;-61
2022/03/26 01:37:56;;;;;;;35.95;19.58;;;;;;;1.50;59.68;98658.25;10338316;28;20056;-61
2022/03/26 01:42:55;;;;;;;33.05;18.20;;;;;;;1.73;59.82;98715.69;10337753;28;20534;-61
2022/03/26 01:47:55;;;;;;;50.40;23.38;;;;;;;1.66;60.13;98711.94;10337204;28;20073;-61
2022/03/26 01:52:55;;;;;;;41.22;21.98;;;;;;;1.59;60.24;98714.13;10337500;28;20057;-61
2022/03/26 01:57:55;;;;;;;38.28;20.35;;;;;;;1.39;60.22;98691.00;10337239;28;20378;-61
2022/03/26 02:02:54;;;;;;;41.33;21.17;;;;;;;1.09;60.80;98652.84;10340041;28;20076;-61
2022/03/26 02:07:53;;;;;;;38.70;23.35;;;;;;;1.36;61.95;98725.75;10340105;28;20064;-61
2022/03/26 02:12:52;;;;;;;45.45;25.05;;;;;;;1.23;62.60;98730.25;10339431;28;20060;-61
2022/03/26 02:17:51;;;;;;;53.88;27.38;;;;;;;1.10;63.39;98735.53;10339293;28;20108;-61
2022/03/26 02:22:50;;;;;;;46.67;26.38;;;;;;;1.06;63.66;98741.25;10339360;28;20037;-60
2022/03/26 02:27:49;;;;;;;43.55;23.40;;;;;;;1.02;63.42;98739.38;10339278;28;20506;-61
2022/03/26 02:32:48;;;;;;;47.85;25.23;;;;;;;0.58;63.44;98681.69;10338957;28;20501;-61
2022/03/26 02:37:47;;;;;;;49.17;26.02;;;;;;;0.88;63.20;98744.63;10338998;28;20033;-61
2022/03/26 02:42:46;;;;;;;51.15;26.52;;;;;;;0.89;63.26;98748.06;10338603;28;20106;-61
2022/03/26 02:47:48;;;;;;;44.17;25.08;;;;;;;0.88;63.45;98746.31;10338505;28;20534;-61
2022/03/26 02:52:48;;;;;;;43.97;22.33;;;;;;;0.77;63.44;98725.28;10338407;28;20060;-61
2022/03/26 02:57:47;;;;;;;40.15;22.15;;;;;;;0.63;63.67;98723.69;10338994;28;20083;-61
2022/03/26 03:02:46;;;;;;;46.88;23.38;;;;;;;0.68;64.70;98747.78;10336101;28;20065;-61
2022/03/26 03:07:45;;;;;;;370.23;138.73;;;;;;;0.69;64.69;98754.66;10335039;28;20048;-61
2022/03/26 03:12:45;;;;;;;;;;;;;;;0.64;65.17;98754.41;10334550;28;20472;-61
2022/03/26 03:17:45;;;;;;;42.00;23.77;;;;;;;0.58;65.02;98756.63;10334039;28;19947;-61
2022/03/26 03:22:44;;;;;;;89.68;40.67;;;;;;;0.51;65.52;98757.09;10333101;28;20061;-61
2022/03/26 03:27:43;;;;;;;296.05;122.65;;;;;;;-0.55;65.15;98590.50;10334413;28;20041;-60
2022/03/26 03:32:42;;;;;;;56.13;26.33;;;;;;;0.32;65.72;98752.66;10332333;28;20072;-61
2022/03/26 03:37:41;;;;;;;52.97;26.30;;;;;;;0.34;65.65;98771.50;10333216;28;20037;-61
2022/03/26 03:42:41;;;;;;;42.92;23.08;;;;;;;0.22;65.47;98758.06;10333045;28;20064;-60
2022/03/26 03:47:40;;;;;;;45.05;24.25;;;;;;;0.25;65.46;98773.53;10332828;28;20900;-60
2022/03/26 03:52:39;;;;;;;47.72;26.15;;;;;;;0.16;66.36;98773.03;10333039;28;20155;-61
2022/03/26 03:57:42;;;;;;;139.60;64.95;;;;;;;-0.10;66.96;98756.25;10332703;28;20056;-60
2022/03/26 04:02:42;;;;;;;43.15;23.05;;;;;;;0.02;67.08;98790.97;10332179;28;20064;-60
2022/03/26 04:07:46;;;;;;;81.47;38.92;;;;;;;-0.02;66.45;98790.72;10332355;28;20061;-60
2022/03/26 04:12:45;;;;;;;159.98;68.82;;;;;;;-0.85;67.41;98658.47;10331679;28;20060;-61
2022/03/26 04:17:44;;;;;;;52.72;26.13;;;;;;;-0.12;66.88;98788.44;10331996;28;20433;-61
2022/03/26 04:22:43;;;;;;;57.17;30.60;;;;;;;-0.17;67.48;98795.81;10331665;28;20040;-60
2022/03/26 04:27:43;;;;;;;59.22;31.65;;;;;;;-0.33;68.26;98799.16;10331797;28;20041;-60
2022/03/26 04:32:42;;;;;;;48.78;24.45;;;;;;;-0.40;68.91;98800.44;10331762;28;20069;-60
2022/03/26 04:37:42;;;;;;;44.25;24.95;;;;;;;-0.62;67.82;98759.22;10330854;28;20069;-60
2022/03/26 04:42:41;;;;;;;47.15;26.50;;;;;;;-0.34;67.86;98809.28;10331079;28;20459;-60
2022/03/26 04:47:41;;;;;;;45.38;26.30;;;;;;;-0.34;67.90;98814.38;10331327;28;20073;-60
2022/03/26 04:52:40;;;;;;;48.83;31.23;;;;;;;-0.40;68.54;98818.31;10330978;28;20487;-60
2022/03/26 04:57:43;;;;;;;77.88;40.78;;;;;;;-0.41;67.91;98815.69;10331169;28;20069;-60
2022/03/26 05:02:42;;;;;;;72.38;38.17;;;;;;;-0.34;67.83;98816.94;10331226;28;20064;-60
2022/03/26 05:07:48;;;;;;;75.32;41.40;;;;;;;-0.28;68.43;98825.78;10330467;28;20061;-60
2022/03/26 05:12:49;;;;;;;77.45;42.78;;;;;;;-0.18;68.14;98823.00;10330187;28;20065;-60
2022/03/26 05:17:49;;;;;;;70.57;38.47;;;;;;;-0.38;67.77;98775.06;10330192;28;20063;-60
2022/03/26 05:22:49;;;;;;;65.05;35.10;;;;;;;-0.08;67.95;98814.22;10330244;28;20061;-60
2022/03/26 05:27:51;;;;;;;67.28;38.33;;;;;;;0.22;67.95;98832.09;10328771;28;20064;-60
2022/03/26 05:32:50;;;;;;;65.63;36.08;;;;;;;0.39;67.54;98840.69;10330414;28;20060;-60
2022/03/26 05:37:50;;;;;;;73.20;38.20;;;;;;;0.54;67.84;98833.00;10329901;28;20064;-60
2022/03/26 05:42:50;;;;;;;57.92;34.90;;;;;;;0.77;67.09;98837.69;10330590;28;20466;-60
2022/03/26 05:47:51;;;;;;;63.40;35.75;;;;;;;0.97;67.05;98835.38;10331934;28;20081;-60
2022/03/26 05:52:50;;;;;;;61.38;35.25;;;;;;;1.09;65.97;98821.56;10333485;28;20053;-60
2022/03/26 05:57:49;;;;;;;64.93;37.17;;;;;;;1.21;65.88;98818.78;10333914;28;20063;-60
2022/03/26 06:02:48;;;;;;;63.15;36.60;;;;;;;1.40;65.49;98823.16;10334212;28;20479;-60
2022/03/26 06:07:47;;;;;;;64.20;38.75;;;;;;;1.64;65.18;98826.09;10337090;28;20543;-60
2022/03/26 06:12:47;;;;;;;72.35;42.20;;;;;;;1.84;64.28;98829.69;10336767;28;20064;-60
2022/03/26 06:17:46;;;;;;;70.97;39.05;;;;;;;2.08;64.28;98835.16;10335858;28;20076;-60
2022/03/26 06:22:45;;;;;;;;;;;;;;;2.31;63.52;98831.19;10336204;28;20068;-60
2022/03/26 06:27:46;;;;;;;58.10;34.50;;;;;;;2.50;62.42;98824.38;10336298;28;20004;-60
2022/03/26 06:32:46;;;;;;;66.03;38.38;;;;;;;2.70;62.05;98838.13;10335336;28;20057;-60
2022/03/26 06:37:45;;;;;;;60.45;34.78;;;;;;;2.81;60.94;98829.25;10335846;28;20065;-60
2022/03/26 06:42:44;;;;;;;98.10;55.95;;;;;;;2.73;60.14;98785.34;10335981;28;20061;-60
2022/03/26 06:47:44;;;;;;;43.80;26.75;;;;;;;3.26;59.63;98842.47;10334716;28;20085;-60
2022/03/26 06:52:43;;;;;;;49.40;29.10;;;;;;;3.35;59.27;98847.97;10334759;28;20065;-60
2022/03/26 06:57:42;;;;;;;58.38;34.30;;;;;;;3.60;58.66;98855.09;10334747;28;20455;-60
2022/03/26 07:02:42;;;;;;;53.80;36.40;;;;;;;3.85;57.68;98851.06;10335737;28;20487;-60
2022/03/26 07:07:41;;;;;;;44.85;28.88;;;;;;;4.05;57.61;98845.03;10337219;28;20056;-61
2022/03/26 07:12:40;;;;;;;;;;;;;;;4.26;57.10;98854.47;10337395;28;20061;-61
2022/03/26 07:17:41;;;;;;;90.93;49.42;;;;;;;4.52;56.88;98846.97;10335769;28;19967;-61
2022/03/26 07:22:44;;;;;;;45.42;26.63;;;;;;;4.48;55.92;98803.16;10335656;28;20089;-61
2022/03/26 07:27:43;;;;;;;42.65;24.77;;;;;;;4.91;54.58;98821.94;10333662;28;20529;-61
2022/03/26 07:32:42;;;;;;;38.25;22.90;;;;;;;5.13;53.00;98819.41;10333420;28;20061;-61
2022/03/26 07:37:43;;;;;;;33.88;23.67;;;;;;;5.54;52.42;98827.78;10334185;28;20064;-61
2022/03/26 07:42:42;;;;;;;64.25;39.63;;;;;;;5.89;51.71;98829.84;10336521;28;20541;-61
2022/03/26 07:47:42;;;;;;;33.40;22.30;;;;;;;6.08;50.81;98831.34;10337039;28;20084;-61
2022/03/26 07:52:41;;;;;;;32.83;20.48;;;;;;;6.29;50.11;98832.06;10335879;28;20464;-61
2022/03/26 07:57:40;;;;;;;32.95;20.27;;;;;;;6.53;49.46;98820.81;10335870;28;20061;-61
2022/03/26 08:02:39;;;;;;;34.15;20.92;;;;;;;6.43;48.98;98751.72;10333785;28;20060;-61
2022/03/26 08:07:39;;;;;;;31.30;19.80;;;;;;;7.14;48.00;98812.38;10332784;28;20455;-61
2022/03/26 08:12:38;;;;;;;29.73;19.77;;;;;;;7.37;46.18;98807.88;10331437;28;20076;-61
2022/03/26 08:17:37;;;;;;;34.75;22.10;;;;;;;7.66;44.85;98806.16;10332003;28;20053;-61
2022/03/26 08:22:37;;;;;;;34.08;19.98;;;;;;;7.98;44.65;98802.69;10331454;28;20073;-61
2022/03/26 08:27:39;;;;;;;33.45;20.58;;;;;;;8.29;44.30;98799.16;10331467;28;20060;-61
2022/03/26 08:32:38;;;;;;;32.38;19.63;;;;;;;8.49;42.49;98785.00;10331396;28;20053;-61
2022/03/26 08:37:37;;;;;;;24.00;15.93;;;;;;;8.77;40.68;98777.88;10330043;28;20807;-61
2022/03/26 08:42:36;;;;;;;21.58;14.27;;;;;;;9.16;39.85;98766.66;10329635;28;20060;-61
2022/03/26 08:47:36;;;;;;;26.95;12.75;;;;;;;9.53;38.63;98764.81;10331136;28;20527;-61
2022/03/26 08:52:37;;;;;;;20.67;11.98;;;;;;;9.90;36.92;98765.50;10329974;28;20075;-61
2022/03/26 08:57:36;;;;;;;20.92;11.80;;;;;;;9.81;35.56;98682.38;10327507;28;20059;-61
2022/03/26 09:02:37;;;;;;;18.45;11.50;;;;;;;10.60;34.02;98753.69;10331049;28;20466;-61
2022/03/26 09:07:36;;;;;;;16.95;10.23;;;;;;;10.91;32.93;98750.69;10330817;28;20061;-61
2022/03/26 09:12:35;;;;;;;15.48;10.52;;;;;;;11.16;31.51;98741.50;10330916;28;20057;-61
2022/03/26 09:17:36;;;;;;;19.05;11.77;;;;;;;11.41;31.71;98737.47;10330346;28;20053;-61
2022/03/26 09:22:35;;;;;;;18.58;10.10;;;;;;;11.72;30.85;98728.28;10333247;28;20061;-61
2022/03/26 09:27:35;;;;;;;28.70;10.60;;;;;;;11.96;29.91;98724.16;10338271;28;20518;-61
2022/03/26 09:32:34;;;;;;;;;;;;;;;12.32;29.18;98714.94;10337728;28;20071;-61
2022/03/26 09:37:32;;;;;;;17.33;10.60;;;;;;;12.49;29.03;98687.31;10336731;28;19948;-61
2022/03/26 09:42:33;;;;;;;17.48;10.70;;;;;;;12.72;28.15;98695.25;10337706;28;20025;-61
2022/03/26 09:47:34;;;;;;;17.38;11.23;;;;;;;12.81;26.70;98707.44;10336758;28;20083;-61
2022/03/26 09:52:34;;;;;;;20.17;11.98;;;;;;;12.92;27.13;98682.31;10336900;28;20071;-61
2022/03/26 09:57:33;;;;;;;20.70;11.38;;;;;;;13.15;27.25;98696.31;10352325;28;20095;-61
2022/03/26 10:02:32;;;;;;;18.30;10.45;;;;;;;13.22;26.56;98689.38;10337512;28;20453;-61
2022/03/26 10:07:31;;;;;;;18.30;10.70;;;;;;;13.40;26.36;98690.28;10335852;28;20083;-61
2022/03/26 10:12:31;;;;;;;15.05;10.00;;;;;;;13.53;26.27;98682.50;10337061;28;20061;-61
2022/03/26 10:17:33;;;;;;;14.90;10.57;;;;;;;13.69;26.74;98672.16;10336159;28;20518;-61
2022/03/26 10:22:41;;;;;;;15.88;10.38;;;;;;;13.13;26.33;98572.94;10336375;28;20065;-61
2022/03/26 10:27:43;;;;;;;17.43;10.87;;;;;;;13.78;25.60;98664.34;10336405;28;20053;-61
2022/03/26 10:32:45;;;;;;;14.35;9.52;;;;;;;14.00;25.25;98652.16;10335388;28;20057;-60
2022/03/26 10:38:02;;;;;;;14.32;9.80;;;;;;;14.17;25.42;98650.41;10335996;28;20429;-60
2022/03/26 10:43:12;;;;;;;16.35;9.48;;;;;;;14.34;25.75;98644.28;10335933;28;20079;-60
2022/03/26 10:48:11;;;;;;;20.98;12.85;;;;;;;14.06;26.75;98573.84;10334867;28;20084;-60
2022/03/26 10:53:13;;;;;;;191.32;119.00;;;;;;;14.72;25.41;98643.34;10335061;28;20061;-60
2022/03/26 10:58:13;;;;;;;15.75;12.07;;;;;;;14.06;24.75;98554.72;10334883;28;20475;-60
2022/03/26 11:03:12;;;;;;;19.05;11.13;;;;;;;14.31;24.73;98631.22;10334212;28;20081;-60
2022/03/26 11:08:13;;;;;;;107.13;78.60;;;;;;;14.45;25.15;98620.75;10334454;28;20033;-60
2022/03/26 11:13:12;;;;;;;15.50;10.30;;;;;;;14.57;25.09;98607.69;10332813;28;20068;-60
2022/03/26 11:18:18;;;;;;;18.40;11.77;;;;;;;14.87;25.23;98605.81;10333578;28;20060;-61
2022/03/26 11:23:52;;;;;;;15.20;10.43;;;;;;;15.10;25.50;98596.13;10333275;28;20057;-61
2022/03/26 11:29:07;;;;;;;15.40;10.93;;;;;;;15.37;27.00;98592.47;10333395;28;20057;-61
2022/03/26 11:34:09;;;;;;;15.57;10.68;;;;;;;15.66;25.75;98594.88;10332936;28;20061;-61
2022/03/26 11:39:16;;;;;;;15.00;9.63;;;;;;;15.60;24.19;98594.03;10333040;28;20499;-61
2022/03/26 11:44:16;;;;;;;17.33;12.30;;;;;;;15.13;23.10;98529.88;10332102;28;20061;-61
2022/03/26 11:54:37;;;;;;;16.33;10.05;;;;;;;15.41;23.68;98488.69;10333776;28;20068;-61
2022/03/26 11:59:38;;;;;;;31.23;12.68;;;;;;;16.04;23.38;98553.56;10332177;28;20068;-61
2022/03/26 12:04:48;;;;;;;16.35;10.70;;;;;;;15.98;22.41;98543.16;10335471;28;20525;-61
2022/03/26 12:09:52;;;;;;;14.18;10.48;;;;;;;15.92;22.93;98532.75;10335461;28;20479;-60
2022/03/26 12:15:04;;;;;;;16.65;10.48;;;;;;;16.03;23.24;98528.28;10335240;28;20016;-60
2022/03/26 12:20:23;;;;;;;41.53;27.73;;;;;;;16.31;23.05;98515.75;10335043;28;20033;-60
2022/03/26 12:25:34;;;;;;;12.73;9.82;;;;;;;16.54;22.48;98519.84;10335373;28;20065;-60
2022/03/26 12:30:33;;;;;;;18.23;10.68;;;;;;;15.55;23.00;98444.09;10334855;28;20427;-60
2022/03/26 12:35:32;;;;;;;18.63;11.75;;;;;;;16.13;23.38;98513.31;10335262;28;20056;-60
2022/03/26 12:40:31;;;;;;;;;;;;;;;15.92;23.37;98515.28;10335253;28;20026;-60
2022/03/26 12:45:31;;;;;;;12.32;9.23;;;;;;;15.83;23.47;98504.91;10334360;28;19975;-60
2022/03/26 12:50:37;;;;;;;19.02;11.07;;;;;;;16.11;24.22;98491.53;10334441;28;20478;-60
2022/03/26 12:55:36;;;;;;;15.35;9.73;;;;;;;16.29;23.51;98488.69;10330250;28;20057;-60
2022/03/26 13:00:35;;;;;;;15.25;10.27;;;;;;;16.20;23.52;98491.41;10325398;28;20058;-60
2022/03/26 13:05:35;;;;;;;;;;;;;;;16.02;23.69;98477.66;10303603;28;20034;-60
2022/03/26 13:10:36;;;;;;;16.08;10.75;;;;;;;16.23;23.28;98476.56;10310363;28;19963;-60
2022/03/26 13:15:35;;;;;;;15.63;11.18;;;;;;;16.48;22.85;98469.22;10338798;28;20053;-60
2022/03/26 13:20:37;;;;;;;14.98;10.32;;;;;;;16.58;22.37;98445.53;10338558;28;20168;-60
2022/03/26 13:25:39;;;;;;;15.40;10.10;;;;;;;16.91;23.17;98465.16;10339041;28;20073;-60
2022/03/26 13:30:38;;;;;;;13.43;10.30;;;;;;;16.81;22.87;98468.81;10339168;28;20052;-60
2022/03/26 13:35:36;;;;;;;;;;;;;;;16.70;22.99;98458.47;10338272;28;20037;-60
2022/03/26 13:40:36;;;;;;;16.52;9.63;;;;;;;16.58;22.74;98456.00;10338193;28;19909;-60
2022/03/26 13:45:35;;;;;;;15.85;9.45;;;;;;;16.07;22.63;98384.22;10337746;28;20088;-60
2022/03/26 13:50:35;;;;;;;16.58;9.40;;;;;;;16.47;23.21;98443.06;10337589;28;20071;-60
2022/03/26 13:55:36;;;;;;;13.52;9.27;;;;;;;16.56;22.66;98442.06;10337227;28;20056;-60
2022/03/26 14:00:36;;;;;;;16.30;9.77;;;;;;;16.30;23.06;98424.94;10337206;28;20061;-60
2022/03/26 14:05:35;;;;;;;14.40;9.23;;;;;;;16.52;22.90;98430.75;10336713;28;20084;-60
2022/03/26 14:10:42;;;;;;;14.38;8.40;;;;;;;16.65;22.73;98426.19;10335713;28;20521;-60
2022/03/26 14:15:44;;;;;;;13.55;8.57;;;;;;;16.70;23.47;98403.44;10336332;28;20542;-60
2022/03/26 14:20:43;;;;;;;13.73;8.88;;;;;;;16.82;23.73;98419.00;10336608;28;20504;-60
2022/03/26 14:25:42;;;;;;;;;;;;;;;16.58;23.95;98406.22;10336373;28;20033;-60
2022/03/26 14:30:42;;;;;;;10.80;7.85;;;;;;;16.45;22.97;98405.53;10335925;28;20306;-60
2022/03/26 14:35:43;;;;;;;13.57;8.15;;;;;;;16.45;23.43;98402.94;10335741;28;20490;-60
2022/03/26 14:40:42;;;;;;;13.93;8.38;;;;;;;16.18;24.17;98342.16;10335902;28;20083;-60
2022/03/26 14:45:41;;;;;;;;;;;;;;;16.29;24.47;98402.25;10336073;28;20046;-60
2022/03/26 14:50:40;;;;;;;11.48;7.70;;;;;;;16.15;24.44;98389.34;10335301;28;19959;-60
2022/03/26 14:55:39;;;;;;;;;;;;;;;15.95;24.81;98392.25;10335859;28;20021;-61
2022/03/26 15:00:38;;;;;;;13.63;8.15;;;;;;;15.66;24.98;98350.69;10335005;28;20258;-60
2022/03/26 15:05:39;;;;;;;11.40;7.63;;;;;;;15.93;25.18;98403.59;10337986;28;20018;-60
2022/03/26 15:10:38;;;;;;;12.35;7.72;;;;;;;15.90;25.13;98399.25;10338645;28;20447;-60
2022/03/26 15:15:39;;;;;;;;;;;;;;;15.75;25.25;98395.06;10338439;28;20470;-60
2022/03/26 15:20:38;;;;;;;20.40;9.30;;;;;;;15.82;25.00;98401.97;10337364;28;19960;-60
2022/03/26 15:25:38;;;;;;;40.65;21.00;;;;;;;15.62;25.51;98364.66;10337125;28;20029;-60
2022/03/26 15:30:37;;;;;;;20.13;10.50;;;;;;;15.66;26.31;98400.38;10336962;28;20068;-60
2022/03/26 15:35:36;;;;;;;58.28;31.13;;;;;;;15.53;26.29;98389.22;10337085;28;20503;-60
2022/03/26 15:40:35;;;;;;;44.05;24.77;;;;;;;15.54;26.04;98400.53;10337742;28;20025;-60
2022/03/26 15:45:34;;;;;;;58.97;31.55;;;;;;;15.50;26.33;98404.06;10336783;28;20072;-60
2022/03/26 15:50:33;;;;;;;46.53;24.77;;;;;;;15.40;27.31;98395.44;10336693;28;20120;-60
2022/03/26 15:55:32;;;;;;;45.45;24.33;;;;;;;15.31;27.35;98396.38;10336492;28;20109;-60
2022/03/26 16:00:32;;;;;;;108.43;56.38;;;;;;;15.16;28.02;98405.25;10335723;28;20526;-60
2022/03/26 16:05:31;;;;;;;25.73;15.85;;;;;;;14.64;28.37;98337.72;10332296;28;20064;-60
2022/03/26 16:10:30;;;;;;;23.65;13.52;;;;;;;14.94;28.72;98404.53;10331915;28;20033;-60
2022/03/26 16:15:29;;;;;;;23.52;12.82;;;;;;;14.82;28.86;98415.09;10331788;28;20112;-60
2022/03/26 16:20:28;;;;;;;34.45;19.77;;;;;;;14.43;29.46;98372.69;10331893;28;20452;-60
2022/03/26 16:25:27;;;;;;;24.95;15.30;;;;;;;14.51;30.33;98419.66;10332029;28;20503;-60
2022/03/26 16:30:26;;;;;;;;;;;;;;;14.18;31.48;98429.41;10331311;28;20061;-60
2022/03/26 16:35:25;;;;;;;30.30;17.80;;;;;;;13.95;31.53;98414.69;10332315;28;20008;-60
2022/03/26 16:40:24;;;;;;;27.92;17.70;;;;;;;13.87;31.57;98431.28;10331214;28;20064;-60
2022/03/26 16:45:23;;;;;;;34.75;18.60;;;;;;;13.67;32.30;98436.53;10331109;28;20069;-60
2022/03/26 16:50:22;;;;;;;33.58;21.27;;;;;;;13.50;33.05;98434.78;10330868;28;20044;-60
2022/03/26 16:55:21;;;;;;;27.08;16.63;;;;;;;13.34;33.28;98431.34;10331122;28;20495;-60
2022/03/26 17:00:20;;;;;;;26.85;17.13;;;;;;;13.22;33.56;98435.72;10331100;28;20064;-60
2022/03/26 17:05:20;;;;;;;45.05;27.85;;;;;;;13.03;33.80;98445.28;10330894;28;20030;-60
2022/03/26 17:10:19;;;;;;;69.95;42.88;;;;;;;12.80;34.34;98446.09;10330447;28;20065;-60
2022/03/26 17:15:18;;;;;;;;;;;;;;;12.46;34.27;98453.88;10331083;28;20060;-60
2022/03/26 17:20:17;;;;;;;73.82;46.97;;;;;;;12.19;35.10;98454.59;10329677;28;19912;-60
2022/03/26 17:25:16;;;;;;;51.25;35.33;;;;;;;11.92;35.87;98457.09;10330236;28;20049;-61
2022/03/26 17:30:15;;;;;;;69.13;45.45;;;;;;;11.61;36.13;98459.53;10330097;28;20041;-61
2022/03/26 17:35:16;;;;;;;59.10;45.90;;;;;;;11.39;36.32;98469.78;10328276;28;20026;-61
2022/03/26 17:40:15;;;;;;;50.65;37.75;;;;;;;11.09;36.79;98474.75;10330054;28;20132;-61
2022/03/26 17:45:15;;;;;;;;;;;;;;;10.88;36.92;98473.69;10306586;28;20077;-61
2022/03/26 17:50:14;;;;;;;43.83;31.10;;;;;;;10.72;37.30;98484.75;10297542;28;19953;-61
2022/03/26 17:55:14;;;;;;;49.40;32.50;;;;;;;10.56;38.13;98500.13;10314878;28;20059;-61
2022/03/26 18:00:13;;;;;;;41.70;28.75;;;;;;;10.01;39.17;98437.25;10336744;28;20072;-60
2022/03/26 18:05:12;;;;;;;74.47;48.50;;;;;;;10.20;39.31;98500.59;10340662;28;20418;-60
2022/03/26 18:10:11;;;;;;;34.20;20.55;;;;;;;10.03;40.35;98508.16;10340716;28;20254;-60
2022/03/26 18:15:10;;;;;;;52.10;31.27;;;;;;;9.89;40.58;98502.78;10339644;28;20050;-60
2022/03/26 18:20:10;;;;;;;36.88;22.90;;;;;;;9.80;41.11;98514.75;10339852;28;20061;-60
2022/03/26 18:25:09;;;;;;;27.20;18.25;;;;;;;9.61;41.74;98511.91;10339580;28;20053;-60
2022/03/26 18:30:09;;;;;;;28.60;19.02;;;;;;;9.54;42.14;98523.03;10339473;28;20035;-60
2022/03/26 18:35:08;;;;;;;31.58;21.27;;;;;;;9.39;42.65;98527.94;10339629;28;20068;-60
2022/03/26 18:40:08;;;;;;;32.95;20.40;;;;;;;9.18;43.03;98529.28;10339418;28;20073;-60
2022/03/26 18:45:08;;;;;;;;;;;;;;;9.04;43.83;98539.41;10338963;28;20483;-60
2022/03/26 18:50:08;;;;;;;43.80;28.13;;;;;;;8.88;44.54;98553.81;10338639;28;19948;-60
2022/03/26 18:55:07;;;;;;;48.97;29.42;;;;;;;8.36;44.90;98482.09;10338126;28;20029;-61
2022/03/26 19:00:32;;;;;;;47.00;27.90;;;;;;;8.61;46.32;98559.31;10338829;28;20064;-61
2022/03/26 19:05:26;;;;;;;118.70;77.97;;;;;;;8.49;45.98;98553.91;10334514;28;20073;-61
2022/03/26 19:10:25;;;;;;;;;;;;;;;8.42;46.20;98560.66;10310997;28;20061;-61
2022/03/26 19:15:24;;;;;;;58.15;36.40;;;;;;;7.87;47.47;98512.97;10322846;28;19987;-61
2022/03/26 19:20:24;;;;;;;193.73;135.63;;;;;;;8.06;47.42;98558.16;10334742;28;20052;-61
2022/03/26 19:25:23;;;;;;;147.73;92.80;;;;;;;7.95;48.38;98562.25;10333905;28;20060;-61
2022/03/26 19:30:22;;;;;;;301.80;177.98;;;;;;;7.92;48.02;98568.22;10333826;28;20021;-61
2022/03/26 19:35:21;;;;;;;126.47;73.63;;;;;;;7.75;50.05;98567.81;10333427;28;20621;-61
2022/03/26 19:40:20;;;;;;;125.57;72.03;;;;;;;7.34;49.51;98523.78;10331991;28;20044;-61
2022/03/26 19:45:19;;;;;;;126.90;77.40;;;;;;;7.21;49.82;98508.81;10332849;28;20446;-61
2022/03/26 19:50:18;;;;;;;101.30;63.97;;;;;;;7.53;49.33;98573.31;10333220;28;20029;-60
2022/03/26 19:55:17;;;;;;;112.60;66.38;;;;;;;7.32;50.07;98561.59;10332977;28;20087;-61
2022/03/26 20:00:16;;;;;;;131.82;81.95;;;;;;;7.27;50.47;98585.56;10333089;28;20032;-61
2022/03/26 20:05:15;;;;;;;123.25;80.78;;;;;;;7.11;50.83;98580.00;10331697;28;20057;-61
2022/03/26 20:10:14;;;;;;;137.05;89.28;;;;;;;7.06;49.87;98579.00;10332071;28;20061;-61
2022/03/26 20:15:13;;;;;;;;;;;;;;;6.98;50.96;98583.97;10331995;28;20072;-61
2022/03/26 20:20:12;;;;;;;114.72;69.53;;;;;;;6.88;50.46;98576.81;10331750;28;19955;-61
2022/03/26 20:25:11;;;;;;;112.32;68.55;;;;;;;6.64;51.92;98565.84;10331700;28;20021;-61
2022/03/26 20:30:10;;;;;;;116.63;72.43;;;;;;;6.66;51.40;98587.38;10332344;28;20026;-61
2022/03/26 20:35:09;;;;;;;114.90;68.55;;;;;;;6.58;52.35;98590.59;10331326;28;20049;-61
2022/03/26 20:40:08;;;;;;;103.97;69.15;;;;;;;6.49;52.79;98597.19;10330792;28;20033;-60
2022/03/26 20:45:08;;;;;;;126.57;80.43;;;;;;;6.21;53.41;98596.41;10330788;28;20077;-61
2022/03/26 20:50:08;;;;;;;119.47;72.53;;;;;;;6.17;54.18;98605.75;10331115;28;20064;-60
2022/03/26 20:55:08;;;;;;;135.35;84.15;;;;;;;6.04;53.88;98585.59;10331026;28;20060;-60
2022/03/26 21:00:08;;;;;;;;;;;;;;;5.88;55.33;98603.97;10330984;28;20057;-60
2022/03/26 21:05:08;;;;;;;132.43;86.50;;;;;;;5.75;55.40;98620.75;10333910;28;19959;-60
2022/03/26 21:10:08;;;;;;;131.32;81.25;;;;;;;5.72;55.73;98611.22;10333294;28;20030;-60
2022/03/26 21:15:09;;;;;;;133.18;83.00;;;;;;;5.66;56.11;98623.03;10258587;28;20068;-60
2022/03/26 21:20:08;;;;;;;119.10;73.18;;;;;;;5.44;55.98;98606.00;10340642;28;20470;-60
2022/03/26 21:30:25;;;;;;;105.85;60.75;;;;;;;5.35;56.48;98629.75;10341714;28;20060;-60
2022/03/26 21:35:25;;;;;;;85.82;52.60;;;;;;;5.17;56.89;98608.53;10340894;28;20061;-60
2022/03/26 21:40:24;;;;;;;78.50;48.60;;;;;;;5.18;56.98;98620.56;10341352;28;20060;-60
2022/03/26 21:45:24;;;;;;;65.32;41.92;;;;;;;5.06;57.58;98615.88;10340939;28;20535;-60
2022/03/26 21:50:25;;;;;;;71.28;43.05;;;;;;;5.06;57.69;98627.06;10341178;28;20076;-60
2022/03/26 21:55:24;;;;;;;70.53;44.80;;;;;;;4.94;58.57;98631.75;10340423;28;20068;-60
2022/03/26 22:00:23;;;;;;;;;;;;;;;4.86;59.39;98628.88;10341004;28;20503;-60
2022/03/26 22:05:22;;;;;;;84.72;50.33;;;;;;;4.80;59.54;98627.78;10336736;28;19956;-60
2022/03/26 22:10:22;;;;;;;93.45;57.92;;;;;;;4.70;59.90;98637.75;10337241;28;20081;-60
2022/03/26 22:15:22;;;;;;;86.82;51.03;;;;;;;4.62;59.60;98631.47;10336373;28;20094;-60
2022/03/26 22:20:21;;;;;;;85.13;51.60;;;;;;;4.57;59.72;98632.09;10336215;28;20073;-60
2022/03/26 22:25:21;;;;;;;;;;;;;;;4.49;59.53;98627.53;10337577;28;20077;-60
2022/03/26 22:30:20;;;;;;;74.20;43.78;;;;;;;4.44;59.85;98623.06;10335240;28;19956;-60
2022/03/26 22:35:19;;;;;;;;;;;;;;;4.37;60.44;98621.97;10336556;28;20064;-60
2022/03/26 22:40:18;;;;;;;174.00;84.03;;;;;;;4.31;61.32;98624.28;10335992;28;19951;-60
2022/03/26 22:45:17;;;;;;;101.95;55.47;;;;;;;4.23;61.78;98618.88;10333988;28;20511;-61
2022/03/26 22:50:17;;;;;;;;;;;;;;;4.20;62.02;98613.63;10336333;28;20076;-60
2022/03/26 22:55:18;;;;;;;128.40;61.03;;;;;;;4.01;61.80;98601.78;10335123;28;20375;-60
2022/03/26 23:00:25;;;;;;;88.93;48.35;;;;;;;4.08;61.72;98638.84;10335161;28;20491;-60
2022/03/26 23:05:25;;;;;;;101.65;52.28;;;;;;;3.99;62.71;98635.91;10333013;28;20096;-60
2022/03/26 23:10:26;;;;;;;107.68;54.25;;;;;;;3.85;63.49;98620.84;10334107;28;20079;-60
2022/03/26 23:15:26;;;;;;;99.47;48.22;;;;;;;3.88;63.65;98638.06;10333392;28;20061;-60